Time;durP1;ratioP1;P1;durP2;ratioP2;P2;SDS_P1;SDS_P2;PMS_P1;PMS_P2;Temp;Humidity;BMP_temperature;BMP_pressure;BME280_temperature;BME280_humidity;BME280_pressure;Samples;Min_cycle;Max_cycle;Signal;HPM_P1;HPM_P2
2022/06/20 00:01:01;;;;;;;8.38;1.10;;;;;;;;;;5050127;28;20744;-17
2022/06/20 00:03:30;;;;;;;6.07;1.50;;;;;;;;;;5052044;28;20721;-17
2022/06/20 00:05:58;;;;;;;8.57;1.33;;;;;;;;;;5051551;28;20688;-17
2022/06/20 00:08:25;;;;;;;3.72;1.25;;;;;;;;;;5044749;28;20242;-18
2022/06/20 00:10:53;;;;;;;5.68;1.50;;;;;;;;;;5042086;28;20712;-18
2022/06/20 00:13:24;;;;;;;3.65;1.40;;;;;;;;;;5035634;28;20760;-17
2022/06/20 00:15:52;;;;;;;6.05;1.35;;;;;;;;;;5039006;28;20231;-18
2022/06/20 00:18:20;;;;;;;4.05;1.20;;;;;;;;;;5038391;28;21092;-17
2022/06/20 00:20:48;;;;;;;3.30;1.05;;;;;;;;;;5042740;28;21067;-17
2022/06/20 00:23:16;;;;;;;3.78;1.02;;;;;;;;;;5040739;28;20260;-17
2022/06/20 00:25:43;;;;;;;3.10;0.90;;;;;;;;;;5044669;28;20234;-18
2022/06/20 00:28:11;;;;;;;8.27;1.92;;;;;;;;;;5051040;28;20241;-18
2022/06/20 00:30:38;;;;;;;3.47;0.95;;;;;;;;;;5051257;28;20230;-17
2022/06/20 00:33:05;;;;;;;5.10;1.10;;;;;;;;;;5048193;28;20389;-17
2022/06/20 00:35:33;;;;;;;2.40;1.05;;;;;;;;;;5046706;28;20222;-18
2022/06/20 00:38:02;;;;;;;4.45;1.08;;;;;;;;;;5048801;28;20242;-18
2022/06/20 00:40:30;;;;;;;2.70;0.77;;;;;;;;;;5048084;28;20277;-17
2022/06/20 00:42:57;;;;;;;4.13;1.17;;;;;;;;;;5050806;28;20241;-18
2022/06/20 00:45:25;;;;;;;2.67;1.05;;;;;;;;;;5047477;28;20238;-18
2022/06/20 00:47:52;;;;;;;5.13;1.27;;;;;;;;;;5047815;28;20252;-18
2022/06/20 00:50:21;;;;;;;4.82;1.00;;;;;;;;;;5045481;28;20234;-17
2022/06/20 00:52:49;;;;;;;3.97;0.85;;;;;;;;;;5043400;28;20231;-17
2022/06/20 00:55:19;;;;;;;4.50;0.82;;;;;;;;;;5039125;28;20237;-18
2022/06/20 00:57:47;;;;;;;4.82;1.00;;;;;;;;;;5041187;28;20239;-17
2022/06/20 01:00:15;;;;;;;3.13;1.10;;;;;;;;;;5042918;28;20226;-17
2022/06/20 01:02:44;;;;;;;3.45;1.15;;;;;;;;;;5047658;28;20234;-17
2022/06/20 01:05:14;;;;;;;5.22;1.00;;;;;;;;;;5039259;28;20297;-17
2022/06/20 01:07:49;;;;;;;3.45;1.00;;;;;;;;;;5033584;28;20919;-17
2022/06/20 01:10:18;;;;;;;3.33;0.90;;;;;;;;;;5034865;28;20783;-17
2022/06/20 01:12:48;;;;;;;3.83;1.10;;;;;;;;;;5031822;28;20227;-17
2022/06/20 01:15:19;;;;;;;4.07;0.80;;;;;;;;;;5031760;28;20234;-17
2022/06/20 01:17:47;;;;;;;3.35;0.90;;;;;;;;;;5034242;28;20340;-17
2022/06/20 01:20:18;;;;;;;4.53;1.45;;;;;;;;;;5039554;28;20237;-17
2022/06/20 01:22:47;;;;;;;2.93;0.93;;;;;;;;;;5007367;28;1036597;-17
2022/06/20 01:25:32;;;;;;;5.47;1.25;;;;;;;;;;5041934;28;20442;-17
2022/06/20 01:28:00;;;;;;;3.05;1.08;;;;;;;;;;5044512;28;20225;-17
2022/06/20 01:30:28;;;;;;;4.63;1.10;;;;;;;;;;5044671;28;20757;-17
2022/06/20 01:32:56;;;;;;;2.33;0.80;;;;;;;;;;5048820;28;20233;-17
2022/06/20 01:38:05;;;;;;;5.90;1.20;;;;;;;;;;5041734;28;20241;-17
2022/06/20 01:40:33;;;;;;;5.38;1.10;;;;;;;;;;5045481;28;20618;-17
2022/06/20 01:43:04;;;;;;;2.95;0.93;;;;;;;;;;5050761;28;20285;-17
2022/06/20 01:48:17;;;;;;;5.10;1.38;;;;;;;;;;5046270;28;20698;-17
2022/06/20 01:50:45;;;;;;;3.30;0.70;;;;;;;;;;5047868;28;20237;-17
2022/06/20 01:53:12;;;;;;;2.30;0.95;;;;;;;;;;5048203;28;20234;-17
2022/06/20 01:55:40;;;;;;;4.72;0.73;;;;;;;;;;5051154;28;20253;-17
2022/06/20 01:58:11;;;;;;;2.25;0.82;;;;;;;;;;5048636;28;20230;-17
2022/06/20 02:00:38;;;;;;;3.60;0.82;;;;;;;;;;5047585;28;20234;-17
2022/06/20 02:03:06;;;;;;;3.58;1.02;;;;;;;;;;5049892;28;20238;-17
2022/06/20 02:05:33;;;;;;;3.25;1.00;;;;;;;;;;5047370;28;20312;-17
2022/06/20 02:08:02;;;;;;;4.28;1.08;;;;;;;;;;5049652;28;20889;-17
2022/06/20 02:10:30;;;;;;;4.15;1.27;;;;;;;;;;5047798;28;20226;-17
2022/06/20 02:12:57;;;;;;;2.60;0.80;;;;;;;;;;5047734;28;20244;-17
2022/06/20 02:15:26;;;;;;;5.13;0.90;;;;;;;;;;5043052;28;20244;-17
2022/06/20 02:17:53;;;;;;;2.42;0.90;;;;;;;;;;5036107;28;20273;-17
2022/06/20 02:20:22;;;;;;;4.85;1.00;;;;;;;;;;5036689;28;20237;-17
2022/06/20 02:22:49;;;;;;;5.45;0.90;;;;;;;;;;5048057;28;20241;-17
2022/06/20 02:25:17;;;;;;;2.92;0.88;;;;;;;;;;5047892;28;20240;-17
2022/06/20 02:27:47;;;;;;;2.78;1.13;;;;;;;;;;5037337;28;20266;-17
2022/06/20 02:30:14;;;;;;;2.70;1.02;;;;;;;;;;5036524;28;21009;-17
2022/06/20 02:32:44;;;;;;;3.25;0.80;;;;;;;;;;5029332;28;20239;-17
2022/06/20 02:35:12;;;;;;;3.22;0.98;;;;;;;;;;5034444;28;20701;-17
2022/06/20 02:37:39;;;;;;;3.75;0.90;;;;;;;;;;5029285;28;20241;-17
2022/06/20 02:40:08;;;;;;;2.05;1.00;;;;;;;;;;5031874;28;20227;-17
2022/06/20 02:42:36;;;;;;;2.40;1.00;;;;;;;;;;5033395;28;20245;-17
2022/06/20 02:45:04;;;;;;;2.13;0.93;;;;;;;;;;5034406;28;20246;-17
2022/06/20 02:47:32;;;;;;;3.22;1.05;;;;;;;;;;5031045;28;20230;-17
2022/06/20 02:50:01;;;;;;;5.28;1.00;;;;;;;;;;5028303;28;20226;-17
2022/06/20 02:52:30;;;;;;;4.93;1.08;;;;;;;;;;5041108;28;20242;-18
2022/06/20 02:54:57;;;;;;;2.97;1.00;;;;;;;;;;5047148;28;20253;-17
2022/06/20 02:57:27;;;;;;;2.20;0.70;;;;;;;;;;5048956;28;20230;-17
2022/06/20 02:59:54;;;;;;;2.88;0.63;;;;;;;;;;5044110;28;20244;-17
2022/06/20 03:02:23;;;;;;;3.10;0.80;;;;;;;;;;5044471;28;20230;-18
2022/06/20 03:04:50;;;;;;;2.50;0.80;;;;;;;;;;5049952;28;20242;-17
2022/06/20 03:07:20;;;;;;;3.80;0.70;;;;;;;;;;5051495;28;20230;-17
2022/06/20 03:09:48;;;;;;;2.00;0.70;;;;;;;;;;5041214;28;20771;-17
2022/06/20 03:12:15;;;;;;;3.38;0.75;;;;;;;;;;5041994;28;20241;-17
2022/06/20 03:14:43;;;;;;;2.15;0.93;;;;;;;;;;5045683;28;20243;-17
2022/06/20 03:17:11;;;;;;;3.65;1.15;;;;;;;;;;5040413;28;20648;-17
2022/06/20 03:19:39;;;;;;;4.53;0.82;;;;;;;;;;5047981;28;20235;-17
2022/06/20 03:22:07;;;;;;;2.25;0.98;;;;;;;;;;5042819;28;20376;-18
2022/06/20 03:24:36;;;;;;;3.08;0.90;;;;;;;;;;5051251;28;20241;-17
2022/06/20 03:27:04;;;;;;;1.35;0.70;;;;;;;;;;5049239;28;20229;-17
2022/06/20 03:29:31;;;;;;;4.43;0.90;;;;;;;;;;5047417;28;20232;-17
2022/06/20 03:31:59;;;;;;;2.63;0.63;;;;;;;;;;5050063;28;20277;-17
2022/06/20 03:34:26;;;;;;;2.42;0.85;;;;;;;;;;5050587;28;21011;-17
2022/06/20 03:36:57;;;;;;;3.15;0.88;;;;;;;;;;5050167;28;20284;-17
2022/06/20 03:39:24;;;;;;;7.53;1.23;;;;;;;;;;5049677;28;21079;-17
2022/06/20 03:41:53;;;;;;;2.90;0.85;;;;;;;;;;5050486;28;20250;-17
2022/06/20 03:44:21;;;;;;;3.70;1.00;;;;;;;;;;5049339;28;20261;-17
2022/06/20 03:46:50;;;;;;;2.85;1.05;;;;;;;;;;5037761;28;21039;-17
2022/06/20 03:49:19;;;;;;;3.00;1.55;;;;;;;;;;5037003;28;20332;-17
2022/06/20 03:51:48;;;;;;;4.13;0.90;;;;;;;;;;5044889;28;20719;-17
2022/06/20 03:54:16;;;;;;;3.17;1.00;;;;;;;;;;5039563;28;20269;-17
2022/06/20 03:56:47;;;;;;;2.45;0.70;;;;;;;;;;5046627;28;20846;-17
2022/06/20 03:59:17;;;;;;;3.03;1.05;;;;;;;;;;5045781;28;20245;-17
2022/06/20 04:01:46;;;;;;;6.20;0.98;;;;;;;;;;5043047;28;20285;-17
2022/06/20 04:04:17;;;;;;;5.03;0.85;;;;;;;;;;5038588;28;20670;-17
2022/06/20 04:06:45;;;;;;;2.67;1.05;;;;;;;;;;5039866;28;20936;-17
2022/06/20 04:12:00;;;;;;;4.38;0.68;;;;;;;;;;5041141;28;20240;-17
2022/06/20 04:14:30;;;;;;;2.05;0.82;;;;;;;;;;5043253;28;20238;-17
2022/06/20 04:16:58;;;;;;;3.97;0.95;;;;;;;;;;5044870;28;20261;-17
2022/06/20 04:19:26;;;;;;;3.35;0.93;;;;;;;;;;5039417;28;20234;-17
2022/06/20 04:21:55;;;;;;;3.85;0.95;;;;;;;;;;5043283;28;20242;-17
2022/06/20 04:24:22;;;;;;;8.20;1.25;;;;;;;;;;5047757;28;20237;-17
2022/06/20 04:26:51;;;;;;;3.47;0.70;;;;;;;;;;5046534;28;20234;-17
2022/06/20 04:29:20;;;;;;;1.92;0.80;;;;;;;;;;5047119;28;20776;-17
2022/06/20 04:31:49;;;;;;;3.60;0.90;;;;;;;;;;5046530;28;20694;-17
2022/06/20 04:34:17;;;;;;;3.75;1.05;;;;;;;;;;5044305;28;20230;-17
2022/06/20 04:36:47;;;;;;;2.17;0.80;;;;;;;;;;5042322;28;20608;-17
2022/06/20 04:39:15;;;;;;;2.25;0.80;;;;;;;;;;5041336;28;20231;-17
2022/06/20 04:41:43;;;;;;;5.07;0.75;;;;;;;;;;5046746;28;20234;-17
2022/06/20 04:44:12;;;;;;;5.05;1.10;;;;;;;;;;5045329;28;20257;-17
2022/06/20 04:46:41;;;;;;;4.22;0.80;;;;;;;;;;5040169;28;20247;-17
2022/06/20 04:49:10;;;;;;;4.22;1.48;;;;;;;;;;5050212;28;20226;-17
2022/06/20 04:51:38;;;;;;;4.47;1.23;;;;;;;;;;5043726;28;20246;-17
2022/06/20 04:54:08;;;;;;;2.60;0.90;;;;;;;;;;5050523;28;20233;-17
2022/06/20 04:56:35;;;;;;;4.85;1.20;;;;;;;;;;5051349;28;20230;-17
2022/06/20 04:59:03;;;;;;;4.88;1.10;;;;;;;;;;5048603;28;20260;-17
2022/06/20 05:01:32;;;;;;;2.88;0.80;;;;;;;;;;5044538;28;20237;-17
2022/06/20 05:04:03;;;;;;;2.55;1.13;;;;;;;;;;5051722;28;20249;-17
2022/06/20 05:06:32;;;;;;;4.28;0.88;;;;;;;;;;5044476;28;20304;-17
2022/06/20 05:09:00;;;;;;;5.97;0.90;;;;;;;;;;5043762;28;20748;-17
2022/06/20 05:11:32;;;;;;;3.22;0.82;;;;;;;;;;5043287;28;20297;-17
2022/06/20 05:14:01;;;;;;;4.15;0.80;;;;;;;;;;5039383;28;20241;-17
2022/06/20 05:16:31;;;;;;;3.38;0.68;;;;;;;;;;5047877;28;21071;-16
2022/06/20 05:18:59;;;;;;;4.88;0.90;;;;;;;;;;5036588;28;20263;-17
2022/06/20 05:21:27;;;;;;;2.42;0.80;;;;;;;;;;5041614;28;20933;-17
2022/06/20 05:23:58;;;;;;;4.05;1.20;;;;;;;;;;5036194;28;20235;-16
2022/06/20 05:26:26;;;;;;;1.98;0.70;;;;;;;;;;5032765;28;20242;-17
2022/06/20 05:28:54;;;;;;;3.28;0.82;;;;;;;;;;5034352;28;20226;-16
2022/06/20 05:31:24;;;;;;;2.67;0.90;;;;;;;;;;5038300;28;20230;-17
2022/06/20 05:33:52;;;;;;;2.15;0.80;;;;;;;;;;5041429;28;20234;-16
2022/06/20 05:36:21;;;;;;;4.53;1.00;;;;;;;;;;5039333;28;20237;-17
2022/06/20 05:38:49;;;;;;;2.97;0.80;;;;;;;;;;5044658;28;20697;-16
2022/06/20 05:41:18;;;;;;;2.85;1.15;;;;;;;;;;5040483;28;20227;-16
2022/06/20 05:43:45;;;;;;;2.22;0.70;;;;;;;;;;5041558;28;20976;-17
2022/06/20 05:46:14;;;;;;;2.72;0.85;;;;;;;;;;5043651;28;20317;-16
2022/06/20 05:48:43;;;;;;;2.65;1.02;;;;;;;;;;5044109;28;21046;-16
2022/06/20 05:51:10;;;;;;;3.25;0.90;;;;;;;;;;5039651;28;20231;-17
2022/06/20 05:53:39;;;;;;;3.22;0.98;;;;;;;;;;5044193;28;20230;-16
2022/06/20 05:56:14;;;;;;;3.67;0.80;;;;;;;;;;5047010;28;20233;-16
2022/06/20 05:58:43;;;;;;;3.63;0.80;;;;;;;;;;5038499;28;20229;-17
2022/06/20 06:01:13;;;;;;;4.15;1.00;;;;;;;;;;5035229;28;20237;-17
2022/06/20 06:03:48;;;;;;;2.72;0.90;;;;;;;;;;5033699;28;20230;-17
2022/06/20 06:06:17;;;;;;;4.60;1.10;;;;;;;;;;5044163;28;20253;-16
2022/06/20 06:08:45;;;;;;;3.38;1.10;;;;;;;;;;5050097;28;20226;-16
2022/06/20 06:11:16;;;;;;;3.95;0.75;;;;;;;;;;5044144;28;20296;-16
2022/06/20 06:13:46;;;;;;;4.32;0.82;;;;;;;;;;5046028;28;20241;-16
2022/06/20 06:19:01;;;;;;;4.60;0.98;;;;;;;;;;5040577;28;20229;-16
2022/06/20 06:21:28;;;;;;;2.08;0.88;;;;;;;;;;5042698;28;20304;-17
2022/06/20 06:23:56;;;;;;;4.30;0.88;;;;;;;;;;5039798;28;20226;-18
2022/06/20 06:26:23;;;;;;;3.47;0.90;;;;;;;;;;5042527;28;20246;-18
2022/06/20 06:28:52;;;;;;;5.97;1.42;;;;;;;;;;5039254;28;20230;-16
2022/06/20 06:31:22;;;;;;;7.47;1.17;;;;;;;;;;5042851;28;20237;-17
2022/06/20 06:33:50;;;;;;;2.25;0.85;;;;;;;;;;5041735;28;20237;-17
2022/06/20 06:36:18;;;;;;;4.68;1.13;;;;;;;;;;5038695;28;20235;-18
2022/06/20 06:38:48;;;;;;;4.97;0.90;;;;;;;;;;5047640;28;20226;-18
2022/06/20 06:41:19;;;;;;;5.50;1.00;;;;;;;;;;5048042;28;20234;-17
2022/06/20 06:43:47;;;;;;;3.72;1.15;;;;;;;;;;5050530;28;20323;-17
2022/06/20 06:46:16;;;;;;;3.42;1.30;;;;;;;;;;5049226;28;20244;-17
2022/06/20 06:48:45;;;;;;;3.83;0.90;;;;;;;;;;5050162;28;20321;-18
2022/06/20 06:51:13;;;;;;;4.75;1.15;;;;;;;;;;5049790;28;20226;-17
2022/06/20 06:53:41;;;;;;;4.40;1.25;;;;;;;;;;5047602;28;20234;-18
2022/06/20 06:56:11;;;;;;;9.48;1.60;;;;;;;;;;5050113;28;20352;-17
2022/06/20 06:58:39;;;;;;;3.58;1.10;;;;;;;;;;5049308;28;20226;-17
2022/06/20 07:01:07;;;;;;;3.40;1.13;;;;;;;;;;5049872;28;20238;-18
2022/06/20 07:03:38;;;;;;;2.95;1.40;;;;;;;;;;5049971;28;21047;-17
2022/06/20 07:06:06;;;;;;;4.78;1.13;;;;;;;;;;5050100;28;20234;-17
2022/06/20 07:08:55;;;;;;;4.80;1.15;;;;;;;;;;5048488;28;20225;-18
2022/06/20 07:11:22;;;;;;;6.28;1.33;;;;;;;;;;5049849;28;20229;-17
2022/06/20 07:13:51;;;;;;;4.32;1.40;;;;;;;;;;5049376;28;20230;-18
2022/06/20 07:16:19;;;;;;;10.07;1.55;;;;;;;;;;5048374;28;20230;-17
2022/06/20 07:18:49;;;;;;;5.28;1.65;;;;;;;;;;5042352;28;20246;-18
2022/06/20 07:21:18;;;;;;;5.20;1.48;;;;;;;;;;5046967;28;20244;-18
2022/06/20 07:23:46;;;;;;;5.57;1.58;;;;;;;;;;5050082;28;20353;-18
2022/06/20 07:26:14;;;;;;;9.18;1.30;;;;;;;;;;5051289;28;20233;-17
2022/06/20 07:28:42;;;;;;;9.65;1.73;;;;;;;;;;5050809;28;20241;-18
2022/06/20 07:31:11;;;;;;;4.80;1.52;;;;;;;;;;5051411;28;20230;-17
2022/06/20 07:33:42;;;;;;;10.25;1.50;;;;;;;;;;5048108;28;20698;-18
2022/06/20 07:36:11;;;;;;;6.93;1.60;;;;;;;;;;5050341;28;20737;-17
2022/06/20 07:38:39;;;;;;;4.57;1.60;;;;;;;;;;5050221;28;20226;-17
2022/06/20 07:41:08;;;;;;;7.15;1.75;;;;;;;;;;5049648;28;20230;-18
2022/06/20 07:43:36;;;;;;;7.55;1.90;;;;;;;;;;5056237;28;20693;-17
2022/06/20 07:46:04;;;;;;;8.05;1.85;;;;;;;;;;5050615;28;20230;-17
2022/06/20 07:48:32;;;;;;;9.93;2.10;;;;;;;;;;5050084;28;20233;-18
2022/06/20 07:51:00;;;;;;;11.18;2.30;;;;;;;;;;5049716;28;20226;-18
2022/06/20 07:53:31;;;;;;;13.27;2.65;;;;;;;;;;5045812;28;20238;-17
2022/06/20 07:55:59;;;;;;;8.60;1.80;;;;;;;;;;5038993;28;20241;-17
2022/06/20 07:58:27;;;;;;;6.15;2.00;;;;;;;;;;5043924;28;20234;-17
2022/06/20 08:00:54;;;;;;;10.02;1.98;;;;;;;;;;5037708;28;20243;-17
2022/06/20 08:03:23;;;;;;;8.23;1.52;;;;;;;;;;5046504;28;20230;-18
2022/06/20 08:05:51;;;;;;;8.02;2.28;;;;;;;;;;5045911;28;20239;-17
2022/06/20 08:08:21;;;;;;;8.82;2.10;;;;;;;;;;5045207;28;20238;-18
2022/06/20 08:10:50;;;;;;;6.90;1.95;;;;;;;;;;5046041;28;20273;-17
2022/06/20 08:13:18;;;;;;;13.50;2.05;;;;;;;;;;5042290;28;20423;-17
2022/06/20 08:15:47;;;;;;;8.85;2.15;;;;;;;;;;5035827;28;20284;-19
2022/06/20 08:18:14;;;;;;;6.93;1.70;;;;;;;;;;5044585;28;20238;-18
2022/06/20 08:20:43;;;;;;;9.43;1.92;;;;;;;;;;5046989;28;20243;-18
2022/06/20 08:23:11;;;;;;;7.25;1.75;;;;;;;;;;5045274;28;20241;-17
2022/06/20 08:25:39;;;;;;;7.47;2.33;;;;;;;;;;5040838;28;20241;-17
2022/06/20 08:28:10;;;;;;;10.13;2.20;;;;;;;;;;5045675;28;21082;-18
2022/06/20 08:30:40;;;;;;;10.73;2.20;;;;;;;;;;5042796;28;20237;-17
2022/06/20 08:33:08;;;;;;;8.15;1.90;;;;;;;;;;5032477;28;20239;-18
2022/06/20 08:35:39;;;;;;;5.60;1.92;;;;;;;;;;5043084;28;21083;-17
2022/06/20 08:38:08;;;;;;;6.88;2.03;;;;;;;;;;5040029;28;21004;-18
2022/06/20 08:40:56;;;;;;;8.43;1.85;;;;;;;;;;5044227;28;20466;-17
2022/06/20 08:43:29;;;;;;;5.63;2.05;;;;;;;;;;5029144;28;20231;-18
2022/06/20 08:46:08;;;;;;;4.43;1.60;;;;;;;;;;5032813;28;20241;-17
2022/06/20 08:49:06;;;;;;;4.43;1.60;;;;;;;;;;5043952;28;20308;-17
2022/06/20 08:51:42;;;;;;;7.00;1.65;;;;;;;;;;4979495;28;20232;-18
2022/06/20 08:54:29;;;;;;;5.13;2.05;;;;;;;;;;5033577;28;20234;-17
2022/06/20 08:56:59;;;;;;;7.18;2.78;;;;;;;;;;5044573;28;21112;-16
2022/06/20 08:59:38;;;;;;;6.13;1.80;;;;;;;;;;5039477;28;20238;-16
2022/06/20 09:02:08;;;;;;;9.52;2.40;;;;;;;;;;5039317;28;20241;-16
2022/06/20 09:04:45;;;;;;;7.47;2.00;;;;;;;;;;5040671;28;20230;-17
2022/06/20 09:07:22;;;;;;;5.63;2.03;;;;;;;;;;5044347;28;21223;-17
2022/06/20 09:10:00;;;;;;;5.93;1.90;;;;;;;;;;5041115;28;20264;-17
2022/06/20 09:12:34;;;;;;;6.75;2.38;;;;;;;;;;5044053;28;20241;-17
2022/06/20 09:15:12;;;;;;;8.00;2.13;;;;;;;;;;5043099;28;20234;-17
2022/06/20 09:17:42;;;;;;;8.13;2.50;;;;;;;;;;5045910;28;20693;-17
2022/06/20 09:20:13;;;;;;;4.93;2.00;;;;;;;;;;5031741;28;20242;-17
2022/06/20 09:22:49;;;;;;;6.38;1.90;;;;;;;;;;5045471;28;21246;-17
2022/06/20 09:25:20;;;;;;;11.50;2.50;;;;;;;;;;5039476;28;20226;-17
2022/06/20 09:27:50;;;;;;;7.13;2.33;;;;;;;;;;5042417;28;20257;-17
2022/06/20 09:30:19;;;;;;;8.07;2.08;;;;;;;;;;5043847;28;20624;-17
2022/06/20 09:33:03;;;;;;;7.25;2.35;;;;;;;;;;5045612;28;20253;-17
2022/06/20 09:35:34;;;;;;;7.90;2.22;;;;;;;;;;5038326;28;20269;-17
2022/06/20 09:38:26;;;;;;;5.82;2.10;;;;;;;;;;5047016;28;20238;-17
2022/06/20 09:40:54;;;;;;;4.45;1.85;;;;;;;;;;5045134;28;20238;-17
2022/06/20 09:43:22;;;;;;;6.45;2.45;;;;;;;;;;5039975;28;20235;-17
2022/06/20 09:45:53;;;;;;;5.88;2.17;;;;;;;;;;5044147;28;20235;-17
2022/06/20 09:48:22;;;;;;;9.48;2.42;;;;;;;;;;5043976;28;20702;-17
2022/06/20 09:50:53;;;;;;;9.57;2.30;;;;;;;;;;5041296;28;20789;-17
2022/06/20 09:53:25;;;;;;;5.78;1.65;;;;;;;;;;5041059;28;20261;-17
2022/06/20 09:55:54;;;;;;;7.75;2.00;;;;;;;;;;5038471;28;20245;-17
2022/06/20 09:58:23;;;;;;;11.00;2.42;;;;;;;;;;5040756;28;20236;-17
2022/06/20 10:00:55;;;;;;;7.55;2.10;;;;;;;;;;5045134;28;20226;-17
2022/06/20 10:03:26;;;;;;;5.70;2.13;;;;;;;;;;5036708;28;21030;-17
2022/06/20 10:05:55;;;;;;;10.90;2.30;;;;;;;;;;5040530;28;20245;-16
2022/06/20 10:08:26;;;;;;;12.88;2.08;;;;;;;;;;5032767;28;20242;-17
2022/06/20 10:10:54;;;;;;;5.88;2.10;;;;;;;;;;5043646;28;20296;-17
2022/06/20 10:13:24;;;;;;;9.02;2.20;;;;;;;;;;5035343;28;20458;-16
2022/06/20 10:15:54;;;;;;;7.05;1.95;;;;;;;;;;5045146;28;20238;-16
2022/06/20 10:18:25;;;;;;;8.45;2.10;;;;;;;;;;5039184;28;20240;-16
2022/06/20 10:20:55;;;;;;;13.48;1.80;;;;;;;;;;5037524;28;20107;-17
2022/06/20 10:23:28;;;;;;;5.53;1.67;;;;;;;;;;5043955;28;20245;-17
2022/06/20 10:26:12;;;;;;;9.88;2.92;;;;;;;;;;5040209;28;20229;-17
2022/06/20 10:28:40;;;;;;;9.82;2.90;;;;;;;;;;5044327;28;20973;-16
2022/06/20 10:31:12;;;;;;;4.80;1.90;;;;;;;;;;5041379;28;21031;-17
2022/06/20 10:33:41;;;;;;;4.32;1.70;;;;;;;;;;5042551;28;20226;-16
2022/06/20 10:36:14;;;;;;;5.85;2.00;;;;;;;;;;5040348;28;20241;-16
2022/06/20 10:38:42;;;;;;;6.25;2.13;;;;;;;;;;5034496;28;20701;-16
2022/06/20 10:41:10;;;;;;;8.98;2.45;;;;;;;;;;5038239;28;21106;-17
2022/06/20 10:43:47;;;;;;;8.40;1.92;;;;;;;;;;5034820;28;20237;-16
2022/06/20 10:46:19;;;;;;;3.25;1.50;;;;;;;;;;5035677;28;21087;-17
2022/06/20 10:48:50;;;;;;;3.00;1.48;;;;;;;;;;5040835;28;20242;-17
2022/06/20 10:51:20;;;;;;;6.75;2.05;;;;;;;;;;5039386;28;20234;-16
2022/06/20 10:53:50;;;;;;;9.25;1.73;;;;;;;;;;5039320;28;20226;-16
2022/06/20 10:56:18;;;;;;;6.57;1.50;;;;;;;;;;5046096;28;20241;-17
2022/06/20 10:58:49;;;;;;;3.33;1.40;;;;;;;;;;5038993;28;20241;-18
2022/06/20 11:01:19;;;;;;;4.38;1.40;;;;;;;;;;5034826;28;20230;-17
2022/06/20 11:04:08;;;;;;;4.80;1.50;;;;;;;;;;5033314;28;21145;-17
2022/06/20 11:06:39;;;;;;;4.03;1.38;;;;;;;;;;5002661;28;20226;-17
2022/06/20 11:09:08;;;;;;;4.22;1.80;;;;;;;;;;5040773;28;20252;-17
2022/06/20 11:11:37;;;;;;;7.30;1.38;;;;;;;;;;5040693;28;20673;-17
2022/06/20 11:14:06;;;;;;;5.90;1.73;;;;;;;;;;5038174;28;20227;-16
2022/06/20 11:16:37;;;;;;;6.03;1.67;;;;;;;;;;5032038;28;20261;-16
2022/06/20 11:19:08;;;;;;;4.97;1.55;;;;;;;;;;5033112;28;20289;-16
2022/06/20 11:21:37;;;;;;;2.75;1.45;;;;;;;;;;5040467;28;20241;-17
2022/06/20 11:24:17;;;;;;;6.03;1.52;;;;;;;;;;5044747;28;20230;-16
2022/06/20 11:26:48;;;;;;;4.43;1.25;;;;;;;;;;5035637;28;20587;-16
2022/06/20 11:29:19;;;;;;;4.55;1.20;;;;;;;;;;5046661;28;20237;-16
2022/06/20 11:31:49;;;;;;;4.32;1.60;;;;;;;;;;5038202;28;20242;-18
2022/06/20 11:34:26;;;;;;;5.20;1.58;;;;;;;;;;5047234;28;20281;-16
2022/06/20 11:37:01;;;;;;;17.17;2.08;;;;;;;;;;5040027;28;21034;-17
2022/06/20 11:39:34;;;;;;;9.52;1.80;;;;;;;;;;5049027;28;20238;-16
2022/06/20 11:42:04;;;;;;;10.10;1.63;;;;;;;;;;5039869;28;20257;-16
2022/06/20 11:44:37;;;;;;;8.50;1.70;;;;;;;;;;5048127;28;20965;-17
2022/06/20 11:47:10;;;;;;;6.68;1.60;;;;;;;;;;5039972;28;20241;-17
2022/06/20 11:49:42;;;;;;;6.78;1.90;;;;;;;;;;5037452;28;21049;-17
2022/06/20 11:52:11;;;;;;;5.10;1.55;;;;;;;;;;5041537;28;20237;-16
2022/06/20 11:54:41;;;;;;;5.63;1.45;;;;;;;;;;5044362;28;20238;-16
2022/06/20 11:57:10;;;;;;;3.28;1.30;;;;;;;;;;5042128;28;20234;-16
2022/06/20 11:59:40;;;;;;;2.70;1.40;;;;;;;;;;5043815;28;20230;-17
2022/06/20 12:02:15;;;;;;;2.65;1.30;;;;;;;;;;5045747;28;20234;-16
2022/06/20 12:04:44;;;;;;;5.40;1.45;;;;;;;;;;5037731;28;20264;-16
2022/06/20 12:07:33;;;;;;;4.40;1.55;;;;;;;;;;5046378;28;20235;-16
2022/06/20 12:10:01;;;;;;;2.35;1.05;;;;;;;;;;5042535;28;20242;-17
2022/06/20 12:12:32;;;;;;;2.42;1.27;;;;;;;;;;5041455;28;20236;-17
2022/06/20 12:15:03;;;;;;;3.85;1.42;;;;;;;;;;5038455;28;20234;-16
2022/06/20 12:17:34;;;;;;;3.08;1.38;;;;;;;;;;5048537;28;20238;-16
2022/06/20 12:23:21;;;;;;;4.15;1.20;;;;;;;;;;5042773;28;20983;-17
2022/06/20 12:25:48;;;;;;;4.18;1.17;;;;;;;;;;5047903;28;20234;-16
2022/06/20 12:28:19;;;;;;;5.13;1.58;;;;;;;;;;5047942;28;20241;-16
2022/06/20 12:30:47;;;;;;;4.03;1.30;;;;;;;;;;5046989;28;20245;-16
2022/06/20 12:33:16;;;;;;;4.57;1.17;;;;;;;;;;5046287;28;20240;-16
2022/06/20 12:35:44;;;;;;;2.55;1.35;;;;;;;;;;5040821;28;20699;-16
2022/06/20 12:38:12;;;;;;;3.50;1.17;;;;;;;;;;5044129;28;20242;-17
2022/06/20 12:40:40;;;;;;;4.45;1.40;;;;;;;;;;5048601;28;20233;-16
2022/06/20 12:43:10;;;;;;;3.25;1.23;;;;;;;;;;5032417;28;20242;-17
2022/06/20 12:45:42;;;;;;;4.07;1.42;;;;;;;;;;5044611;28;20772;-16
2022/06/20 12:48:17;;;;;;;2.58;1.15;;;;;;;;;;5036559;28;20241;-17
2022/06/20 12:50:46;;;;;;;3.65;1.08;;;;;;;;;;5041229;28;20274;-16
2022/06/20 12:53:24;;;;;;;4.22;1.27;;;;;;;;;;5043908;28;20238;-17
2022/06/20 12:55:54;;;;;;;3.97;1.40;;;;;;;;;;5037279;28;20262;-16
2022/06/20 12:58:28;;;;;;;7.38;1.60;;;;;;;;;;5044354;28;21680;-16
2022/06/20 13:00:56;;;;;;;3.65;1.33;;;;;;;;;;5040374;28;20234;-16
2022/06/20 13:03:35;;;;;;;3.67;1.38;;;;;;;;;;5047657;28;20226;-16
2022/06/20 13:06:26;;;;;;;4.07;1.30;;;;;;;;;;5039865;28;20246;-16
2022/06/20 13:08:56;;;;;;;6.97;1.50;;;;;;;;;;5045418;28;20481;-17
2022/06/20 13:11:26;;;;;;;6.80;1.20;;;;;;;;;;5042771;28;20249;-17
2022/06/20 13:13:55;;;;;;;4.10;1.45;;;;;;;;;;5047884;28;20240;-17
2022/06/20 13:16:24;;;;;;;5.47;1.50;;;;;;;;;;5041126;28;21239;-18
2022/06/20 13:19:07;;;;;;;3.85;1.35;;;;;;;;;;5039756;28;20230;-17
2022/06/20 13:21:37;;;;;;;4.40;1.45;;;;;;;;;;5032028;28;20854;-17
2022/06/20 13:24:11;;;;;;;4.03;1.40;;;;;;;;;;5040064;28;20244;-17
2022/06/20 13:26:40;;;;;;;5.53;1.50;;;;;;;;;;5042116;28;20230;-17
2022/06/20 13:29:13;;;;;;;5.50;1.60;;;;;;;;;;5039583;28;20349;-17
2022/06/20 13:31:43;;;;;;;4.03;1.42;;;;;;;;;;5037478;28;20234;-17
2022/06/20 13:34:14;;;;;;;2.65;1.40;;;;;;;;;;5041749;28;20249;-17
2022/06/20 13:36:42;;;;;;;5.10;1.38;;;;;;;;;;5034656;28;20231;-17
2022/06/20 13:39:14;;;;;;;5.50;1.98;;;;;;;;;;5038336;28;20265;-17
2022/06/20 13:41:42;;;;;;;4.95;1.40;;;;;;;;;;5037864;28;20234;-17
2022/06/20 13:44:15;;;;;;;3.90;1.58;;;;;;;;;;5041499;28;20243;-17
2022/06/20 13:46:45;;;;;;;3.78;1.42;;;;;;;;;;5044681;28;20316;-18
2022/06/20 13:49:15;;;;;;;6.35;1.60;;;;;;;;;;5044125;28;20233;-18
2022/06/20 13:51:44;;;;;;;3.63;1.60;;;;;;;;;;5044575;28;21142;-17
2022/06/20 13:54:15;;;;;;;3.10;1.10;;;;;;;;;;5041916;28;20240;-17
2022/06/20 13:56:44;;;;;;;4.65;1.77;;;;;;;;;;5043090;28;20238;-17
2022/06/20 13:59:16;;;;;;;3.38;1.58;;;;;;;;;;5029966;28;20230;-17
2022/06/20 14:01:44;;;;;;;4.90;1.95;;;;;;;;;;5042400;28;20238;-17
2022/06/20 14:04:12;;;;;;;3.05;1.20;;;;;;;;;;5037913;28;20245;-17
2022/06/20 14:06:43;;;;;;;5.50;1.50;;;;;;;;;;5035469;28;20223;-17
2022/06/20 14:09:12;;;;;;;8.00;2.22;;;;;;;;;;5033392;28;20237;-17
2022/06/20 14:11:43;;;;;;;4.40;1.27;;;;;;;;;;5032756;28;20230;-17
2022/06/20 14:14:16;;;;;;;4.55;1.67;;;;;;;;;;5039203;28;20959;-16
2022/06/20 14:16:45;;;;;;;3.72;1.50;;;;;;;;;;5043171;28;20242;-16
2022/06/20 14:19:13;;;;;;;3.78;1.95;;;;;;;;;;5044615;28;20732;-16
2022/06/20 14:21:44;;;;;;;5.05;1.75;;;;;;;;;;5036590;28;20238;-16
2022/06/20 14:24:15;;;;;;;5.47;1.67;;;;;;;;;;5043143;28;20765;-16
2022/06/20 14:26:43;;;;;;;4.43;1.65;;;;;;;;;;5035739;28;20230;-16
2022/06/20 14:29:15;;;;;;;2.35;1.30;;;;;;;;;;5042816;28;20238;-16
2022/06/20 14:31:47;;;;;;;2.97;1.50;;;;;;;;;;5038331;28;20337;-17
2022/06/20 14:34:16;;;;;;;3.47;1.40;;;;;;;;;;5043376;28;20230;-16
2022/06/20 14:36:47;;;;;;;11.90;1.70;;;;;;;;;;5037775;28;20282;-18
2022/06/20 14:39:15;;;;;;;3.40;1.42;;;;;;;;;;5033427;28;20335;-16
2022/06/20 14:41:45;;;;;;;4.70;1.50;;;;;;;;;;5041763;28;20733;-17
2022/06/20 14:44:22;;;;;;;6.00;1.65;;;;;;;;;;5039123;28;20238;-17
2022/06/20 14:46:50;;;;;;;3.67;1.20;;;;;;;;;;5033010;28;20317;-17
2022/06/20 14:49:19;;;;;;;4.78;1.40;;;;;;;;;;5044423;28;20259;-17
2022/06/20 14:51:54;;;;;;;3.97;1.40;;;;;;;;;;5038087;28;20238;-16
2022/06/20 14:54:23;;;;;;;3.03;1.23;;;;;;;;;;5031873;28;20741;-17
2022/06/20 14:56:51;;;;;;;3.10;1.70;;;;;;;;;;5042796;28;20416;-16
2022/06/20 14:59:20;;;;;;;4.47;1.60;;;;;;;;;;5037065;28;20238;-17
2022/06/20 15:01:48;;;;;;;4.03;1.17;;;;;;;;;;5039293;28;20675;-16
2022/06/20 15:04:17;;;;;;;2.92;1.52;;;;;;;;;;5037620;28;20230;-16
2022/06/20 15:06:44;;;;;;;7.05;1.83;;;;;;;;;;5037202;28;20309;-17
2022/06/20 15:09:21;;;;;;;5.10;1.38;;;;;;;;;;5041873;28;20321;-17
2022/06/20 15:11:51;;;;;;;6.18;1.25;;;;;;;;;;5047104;28;20452;-17
2022/06/20 15:14:22;;;;;;;4.50;1.70;;;;;;;;;;5045691;28;20230;-17